Time;durP1;ratioP1;P1;durP2;ratioP2;P2;SDS_P1;SDS_P2;PMS_P1;PMS_P2;Temp;Humidity;BMP_temperature;BMP_pressure;BME280_temperature;BME280_humidity;BME280_pressure;Samples;Min_cycle;Max_cycle;Signal;HPM_P1;HPM_P2
2022/12/30 00:02:07;;;;;;;;;;;;;;;6.76;100;100890.7;;;;-78
2022/12/30 00:07:07;;;;;;;;;;;;;;;6.76;100;100886.6;;;;-74
2022/12/30 00:37:07;;;;;;;;;;;;;;;6.63;100;100899.8;;;;-74
2022/12/30 00:47:07;;;;;;;;;;;;;;;6.48;100;100909.5;;;;-74
2022/12/30 00:57:07;;;;;;;;;;;;;;;6.49;100;100924.5;;;;-74
2022/12/30 01:02:06;;;;;;;;;;;;;;;6.51;100;100929.6;;;;-74
2022/12/30 01:07:07;;;;;;;;;;;;;;;6.5;100;100936.4;;;;-75
2022/12/30 01:12:12;;;;;;;;;;;;;;;6.42;100;100938.6;;;;-75
2022/12/30 01:17:07;;;;;;;;;;;;;;;6.36;100;100935.5;;;;-74
2022/12/30 01:22:07;;;;;;;;;;;;;;;6.26;100;100942.6;;;;-73
2022/12/30 01:24:36;;;;;;;10.4;1.7;;;;;;;;;;;;;-74
2022/12/30 01:27:07;;;;;;;;;;;;;;;6.17;100;100945.5;;;;-74
2022/12/30 01:32:09;;;;;;;;;;;;;;;6.17;100;100951.7;;;;-74
2022/12/30 01:37:07;;;;;;;;;;;;;;;6.12;100;100950.5;;;;-74
2022/12/30 01:42:07;;;;;;;;;;;;;;;6.05;100;100957.5;;;;-74
2022/12/30 01:47:07;;;;;;;;;;;;;;;6.01;100;100957.2;;;;-74
2022/12/30 01:52:07;;;;;;;;;;;;;;;5.93;100;100952.6;;;;-74
2022/12/30 01:54:37;;;;;;;11.4;1.8;;;;;;;;;;;;;-73
2022/12/30 01:57:07;;;;;;;;;;;;;;;5.83;100;100942;;;;-74
2022/12/30 02:02:07;;;;;;;;;;;;;;;5.75;100;100943.8;;;;-73
2022/12/30 02:07:09;;;;;;;;;;;;;;;5.68;100;100939.8;;;;-74
2022/12/30 02:12:08;;;;;;;;;;;;;;;5.63;100;100929.8;;;;-74
2022/12/30 02:17:09;;;;;;;;;;;;;;;5.58;100;100928.5;;;;-74
2022/12/30 02:22:10;;;;;;;;;;;;;;;5.53;100;100940.6;;;;-73
2022/12/30 02:24:47;;;;;;;5.9;1.6;;;;;;;;;;;;;-74
2022/12/30 02:27:23;;;;;;;;;;;;;;;5.48;100;100929.4;;;;-74
2022/12/30 02:32:11;;;;;;;;;;;;;;;5.45;100;100920.8;;;;-75
2022/12/30 02:37:13;;;;;;;;;;;;;;;5.39;100;100923.4;;;;-75
2022/12/30 02:47:09;;;;;;;;;;;;;;;5.27;100;100922.3;;;;-75
2022/12/30 02:52:19;;;;;;;;;;;;;;;5.22;100;100923.8;;;;-75
2022/12/30 02:54:38;;;;;;;8.8;1.7;;;;;;;;;;;;;-74
2022/12/30 02:57:17;;;;;;;;;;;;;;;5.19;100;100917;;;;-75
2022/12/30 03:07:17;;;;;;;;;;;;;;;5.14;100;100926;;;;-73
2022/12/30 03:12:13;;;;;;;;;;;;;;;5.11;100;100932.2;;;;-73
2022/12/30 03:17:10;;;;;;;;;;;;;;;5.1;100;100927.3;;;;-75
2022/12/30 03:22:07;;;;;;;;;;;;;;;5.1;100;100915.7;;;;-75
2022/12/30 03:27:08;;;;;;;;;;;;;;;5.07;100;100915.3;;;;-74
2022/12/30 03:32:07;;;;;;;;;;;;;;;5.04;100;100907.7;;;;-74
2022/12/30 03:37:10;;;;;;;;;;;;;;;5.04;100;100901.8;;;;-74
2022/12/30 03:42:07;;;;;;;;;;;;;;;5;100;100908;;;;-74
2022/12/30 03:47:07;;;;;;;;;;;;;;;4.99;100;100895.3;;;;-74
2022/12/30 03:52:07;;;;;;;;;;;;;;;4.96;100;100894.6;;;;-73
2022/12/30 03:54:37;;;;;;;8.2;2;;;;;;;;;;;;;-74
2022/12/30 03:57:07;;;;;;;;;;;;;;;4.93;100;100892;;;;-73
2022/12/30 04:02:07;;;;;;;;;;;;;;;4.89;100;100891.6;;;;-74
2022/12/30 04:07:07;;;;;;;;;;;;;;;4.88;100;100895.9;;;;-75
2022/12/30 04:12:07;;;;;;;;;;;;;;;4.87;100;100892.5;;;;-75
2022/12/30 04:17:07;;;;;;;;;;;;;;;4.84;100;100888.4;;;;-74
2022/12/30 04:22:06;;;;;;;;;;;;;;;4.8;100;100895.3;;;;-75
2022/12/30 04:24:37;;;;;;;7.5;1.9;;;;;;;;;;;;;-75
2022/12/30 04:27:06;;;;;;;;;;;;;;;4.77;100;100900.1;;;;-74
2022/12/30 04:32:06;;;;;;;;;;;;;;;4.74;100;100895.4;;;;-74
2022/12/30 04:37:07;;;;;;;;;;;;;;;4.71;100;100896.3;;;;-74
2022/12/30 04:42:06;;;;;;;;;;;;;;;4.67;100;100888.5;;;;-79
2022/12/30 04:47:07;;;;;;;;;;;;;;;4.65;100;100891.4;;;;-79
2022/12/30 04:52:07;;;;;;;;;;;;;;;4.66;100;100895.8;;;;-79
2022/12/30 04:54:37;;;;;;;8.5;1.7;;;;;;;;;;;;;-79
2022/12/30 04:57:07;;;;;;;;;;;;;;;4.63;100;100901.8;;;;-79
2022/12/30 05:02:06;;;;;;;;;;;;;;;4.58;100;100899.5;;;;-75
2022/12/30 05:07:06;;;;;;;;;;;;;;;4.57;100;100894.1;;;;-74
2022/12/30 05:12:07;;;;;;;;;;;;;;;4.52;100;100891.8;;;;-74
2022/12/30 05:17:07;;;;;;;;;;;;;;;4.52;100;100878.7;;;;-73
2022/12/30 05:22:06;;;;;;;;;;;;;;;4.49;100;100864.8;;;;-74
2022/12/30 05:27:06;;;;;;;;;;;;;;;4.48;100;100865.1;;;;-78
2022/12/30 05:32:07;;;;;;;;;;;;;;;4.46;100;100872.8;;;;-77
2022/12/30 05:37:06;;;;;;;;;;;;;;;4.44;100;100878.1;;;;-78
2022/12/30 05:42:07;;;;;;;;;;;;;;;4.45;100;100863.6;;;;-79
2022/12/30 05:47:07;;;;;;;;;;;;;;;4.43;100;100868.7;;;;-79
2022/12/30 05:52:07;;;;;;;;;;;;;;;4.43;100;100871.1;;;;-78
2022/12/30 05:54:37;;;;;;;6.8;1.5;;;;;;;;;;;;;-78
2022/12/30 05:57:06;;;;;;;;;;;;;;;4.41;100;100857.3;;;;-78
2022/12/30 06:02:07;;;;;;;;;;;;;;;4.42;100;100848.6;;;;-78
2022/12/30 06:07:07;;;;;;;;;;;;;;;4.38;100;100831.5;;;;-78
2022/12/30 06:12:07;;;;;;;;;;;;;;;4.36;100;100833.3;;;;-78
2022/12/30 06:17:06;;;;;;;;;;;;;;;4.36;100;100838.8;;;;-78
2022/12/30 06:22:06;;;;;;;;;;;;;;;4.34;100;100833.8;;;;-79
2022/12/30 06:24:37;;;;;;;9.9;2.2;;;;;;;;;;;;;-79
2022/12/30 06:27:06;;;;;;;;;;;;;;;4.33;100;100821.9;;;;-79
2022/12/30 06:32:07;;;;;;;;;;;;;;;4.29;100;100816.9;;;;-78
2022/12/30 06:37:07;;;;;;;;;;;;;;;4.25;100;100816.7;;;;-77
2022/12/30 06:42:07;;;;;;;;;;;;;;;4.22;100;100808.1;;;;-77
2022/12/30 06:47:07;;;;;;;;;;;;;;;4.22;100;100801.8;;;;-78
2022/12/30 06:52:07;;;;;;;;;;;;;;;4.18;100;100803.9;;;;-78
2022/12/30 06:54:38;;;;;;;8.7;2.1;;;;;;;;;;;;;-79
2022/12/30 06:57:06;;;;;;;;;;;;;;;4.19;100;100792.7;;;;-78
2022/12/30 07:02:06;;;;;;;;;;;;;;;4.14;100;100781.6;;;;-77
2022/12/30 07:07:06;;;;;;;;;;;;;;;4.12;100;100780.8;;;;-78
2022/12/30 07:12:07;;;;;;;;;;;;;;;4.1;100;100767.5;;;;-77
2022/12/30 07:17:06;;;;;;;;;;;;;;;4.06;100;100753.2;;;;-78
2022/12/30 07:22:06;;;;;;;;;;;;;;;4.06;100;100746.1;;;;-78
2022/12/30 07:24:37;;;;;;;12.9;2;;;;;;;;;;;;;-78
2022/12/30 07:27:06;;;;;;;;;;;;;;;4.04;100;100747.5;;;;-77
2022/12/30 07:32:07;;;;;;;;;;;;;;;4.04;100;100752.8;;;;-78
2022/12/30 07:37:07;;;;;;;;;;;;;;;4.09;100;100737;;;;-77
2022/12/30 07:42:08;;;;;;;;;;;;;;;4.05;100;100741.2;;;;-78
2022/12/30 07:47:07;;;;;;;;;;;;;;;4.07;100;100728.3;;;;-77
2022/12/30 07:52:07;;;;;;;;;;;;;;;4.07;100;100706.2;;;;-79
2022/12/30 07:54:37;;;;;;;4.6;1.6;;;;;;;;;;;;;-78
2022/12/30 07:57:07;;;;;;;;;;;;;;;4.03;100;100690.3;;;;-78
2022/12/30 08:02:07;;;;;;;;;;;;;;;4.03;100;100686.7;;;;-77
2022/12/30 08:07:07;;;;;;;;;;;;;;;4.02;100;100682.1;;;;-78
2022/12/30 08:12:07;;;;;;;;;;;;;;;4.04;100;100676.8;;;;-77
2022/12/30 08:17:06;;;;;;;;;;;;;;;4.05;100;100674.6;;;;-77
2022/12/30 08:22:06;;;;;;;;;;;;;;;4.04;100;100655.2;;;;-78
2022/12/30 08:24:37;;;;;;;9.2;2;;;;;;;;;;;;;-78
2022/12/30 08:27:06;;;;;;;;;;;;;;;4.12;100;100659.7;;;;-78
2022/12/30 08:32:07;;;;;;;;;;;;;;;4.17;100;100661.9;;;;-78
2022/12/30 08:37:06;;;;;;;;;;;;;;;4.23;100;100652.3;;;;-74
2022/12/30 08:42:06;;;;;;;;;;;;;;;4.33;100;100653;;;;-73
2022/12/30 08:47:07;;;;;;;;;;;;;;;4.32;100;100640.9;;;;-73
2022/12/30 08:52:07;;;;;;;;;;;;;;;4.41;100;100643.4;;;;-73
2022/12/30 08:54:36;;;;;;;10.7;2.6;;;;;;;;;;;;;-73
2022/12/30 08:57:07;;;;;;;;;;;;;;;4.51;100;100652.2;;;;-73
2022/12/30 09:02:06;;;;;;;;;;;;;;;4.58;100;100646.5;;;;-74
2022/12/30 09:07:06;;;;;;;;;;;;;;;4.6;100;100632.9;;;;-74
2022/12/30 09:12:07;;;;;;;;;;;;;;;4.67;100;100615.3;;;;-74
2022/12/30 09:17:06;;;;;;;;;;;;;;;4.7;100;100609.7;;;;-74
2022/12/30 09:22:06;;;;;;;;;;;;;;;4.75;100;100610.8;;;;-73
2022/12/30 09:24:37;;;;;;;8.9;2.6;;;;;;;;;;;;;-74
2022/12/30 09:27:10;;;;;;;;;;;;;;;4.78;100;100585.8;;;;-74
2022/12/30 09:32:07;;;;;;;;;;;;;;;4.83;100;100581.1;;;;-74
2022/12/30 09:37:06;;;;;;;;;;;;;;;4.9;100;100577.8;;;;-73
2022/12/30 09:47:08;;;;;;;;;;;;;;;5.02;100;100546.3;;;;-75
2022/12/30 09:52:09;;;;;;;;;;;;;;;5.05;100;100534.5;;;;-74
2022/12/30 09:54:40;;;;;;;7;2.2;;;;;;;;;;;;;-74
2022/12/30 10:02:16;;;;;;;;;;;;;;;5.16;100;100515.4;;;;-74
2022/12/30 10:07:12;;;;;;;;;;;;;;;5.22;100;100508.5;;;;-73
2022/12/30 10:12:16;;;;;;;;;;;;;;;5.28;100;100491.1;;;;-74
2022/12/30 10:17:12;;;;;;;;;;;;;;;5.33;100;100494;;;;-75
2022/12/30 10:22:08;;;;;;;;;;;;;;;5.38;100;100499.7;;;;-74
2022/12/30 10:24:40;;;;;;;6.1;1.9;;;;;;;;;;;;;-74
2022/12/30 10:27:09;;;;;;;;;;;;;;;5.43;100;100469.1;;;;-74
2022/12/30 10:32:12;;;;;;;;;;;;;;;5.48;100;100447.7;;;;-74
2022/12/30 10:37:07;;;;;;;;;;;;;;;5.52;100;100425.8;;;;-74
2022/12/30 10:42:20;;;;;;;;;;;;;;;5.58;100;100392.7;;;;-74
2022/12/30 10:47:28;;;;;;;;;;;;;;;5.63;100;100372;;;;-74
2022/12/30 10:52:07;;;;;;;;;;;;;;;5.68;100;100350.5;;;;-74
2022/12/30 10:54:36;;;;;;;5.4;1.6;;;;;;;;;;;;;-74
2022/12/30 10:57:07;;;;;;;;;;;;;;;5.73;100;100334.5;;;;-74
2022/12/30 11:02:16;;;;;;;;;;;;;;;5.78;100;100326.8;;;;-74
2022/12/30 11:07:08;;;;;;;;;;;;;;;5.84;100;100298.1;;;;-74
2022/12/30 11:17:19;;;;;;;;;;;;;;;5.92;100;100253.2;;;;-75
2022/12/30 11:22:07;;;;;;;;;;;;;;;5.95;100;100232.3;;;;-74
2022/12/30 11:24:36;;;;;;;4.9;1.3;;;;;;;;;;;;;-74
2022/12/30 11:27:07;;;;;;;;;;;;;;;6;100;100213.2;;;;-74
2022/12/30 11:32:12;;;;;;;;;;;;;;;6.06;100;100187.7;;;;-73
2022/12/30 11:37:16;;;;;;;;;;;;;;;6.08;100;100181.1;;;;-77
2022/12/30 11:42:17;;;;;;;;;;;;;;;6.12;100;100149.3;;;;-78
2022/12/30 11:47:08;;;;;;;;;;;;;;;6.14;100;100152.3;;;;-79
2022/12/30 11:52:10;;;;;;;;;;;;;;;6.18;100;100131.5;;;;-78
2022/12/30 11:54:41;;;;;;;4.7;1.2;;;;;;;;;;;;;-79
2022/12/30 11:57:08;;;;;;;;;;;;;;;6.21;100;100094.7;;;;-79
2022/12/30 12:02:08;;;;;;;;;;;;;;;6.23;100;100081.6;;;;-77
2022/12/30 12:07:07;;;;;;;;;;;;;;;6.28;100;100080.6;;;;-78
2022/12/30 12:12:09;;;;;;;;;;;;;;;6.35;100;100064;;;;-73
2022/12/30 12:17:12;;;;;;;;;;;;;;;6.39;100;100041.7;;;;-74
2022/12/30 12:22:13;;;;;;;;;;;;;;;6.43;100;100030.9;;;;-74
2022/12/30 12:24:40;;;;;;;7.5;2;;;;;;;;;;;;;-74
2022/12/30 12:27:09;;;;;;;;;;;;;;;6.47;100;100012.9;;;;-75
2022/12/30 12:32:18;;;;;;;;;;;;;;;6.49;100;100000.2;;;;-75
2022/12/30 12:37:13;;;;;;;;;;;;;;;6.5;100;99980.98;;;;-74
2022/12/30 12:42:11;;;;;;;;;;;;;;;6.55;100;99945.03;;;;-75
2022/12/30 12:47:12;;;;;;;;;;;;;;;6.6;100;99931.53;;;;-75
2022/12/30 12:52:14;;;;;;;;;;;;;;;6.61;100;99907.17;;;;-75
2022/12/30 12:54:50;;;;;;;4.9;1.3;;;;;;;;;;;;;-75
2022/12/30 12:57:15;;;;;;;;;;;;;;;6.66;100;99878.28;;;;-79
2022/12/30 13:02:16;;;;;;;;;;;;;;;6.71;100;99849.76;;;;-79
2022/12/30 13:07:17;;;;;;;;;;;;;;;6.74;100;99809.22;;;;-80
2022/12/30 13:12:09;;;;;;;;;;;;;;;6.8;100;99777;;;;-78
2022/12/30 13:17:10;;;;;;;;;;;;;;;6.8;100;99763.09;;;;-79
2022/12/30 13:22:09;;;;;;;;;;;;;;;6.84;100;99734.94;;;;-74
2022/12/30 13:24:38;;;;;;;5.7;1.1;;;;;;;;;;;;;-74
2022/12/30 13:27:08;;;;;;;;;;;;;;;6.9;100;99724.44;;;;-74
2022/12/30 13:32:10;;;;;;;;;;;;;;;6.9;100;99696.18;;;;-74
2022/12/30 13:37:12;;;;;;;;;;;;;;;6.94;100;99673.86;;;;-75
2022/12/30 13:42:24;;;;;;;;;;;;;;;6.97;100;99674.28;;;;-75
2022/12/30 13:47:08;;;;;;;;;;;;;;;7.01;100;99659.44;;;;-75
2022/12/30 13:52:09;;;;;;;;;;;;;;;7.05;100;99665.04;;;;-75
2022/12/30 13:54:39;;;;;;;4.5;1.4;;;;;;;;;;;;;-75
2022/12/30 13:57:07;;;;;;;;;;;;;;;7.09;100;99648.26;;;;-75
2022/12/30 14:02:29;;;;;;;;;;;;;;;7.1;100;99641.13;;;;-75
2022/12/30 14:07:06;;;;;;;;;;;;;;;7.11;100;99621.41;;;;-76
2022/12/30 14:12:17;;;;;;;;;;;;;;;7.17;100;99624.5;;;;-76
2022/12/30 14:17:09;;;;;;;;;;;;;;;7.17;100;99620.72;;;;-77
2022/12/30 14:22:06;;;;;;;;;;;;;;;7.19;100;99619.23;;;;-76
2022/12/30 14:24:52;;;;;;;4;0.8;;;;;;;;;;;;;-75
2022/12/30 14:27:06;;;;;;;;;;;;;;;7.2;100;99616.97;;;;-76
2022/12/30 14:32:08;;;;;;;;;;;;;;;7.22;100;99618.17;;;;-75
2022/12/30 14:37:08;;;;;;;;;;;;;;;7.24;100;99617.7;;;;-76
2022/12/30 14:42:07;;;;;;;;;;;;;;;7.24;100;99608.55;;;;-76
2022/12/30 14:47:08;;;;;;;;;;;;;;;7.24;100;99603.23;;;;-76
2022/12/30 14:52:09;;;;;;;;;;;;;;;7.28;100;99605.12;;;;-76
2022/12/30 14:54:40;;;;;;;2.3;0.9;;;;;;;;;;;;;-76
2022/12/30 14:57:11;;;;;;;;;;;;;;;7.28;100;99601.86;;;;-76
2022/12/30 15:02:20;;;;;;;;;;;;;;;7.27;100;99594.84;;;;-75
2022/12/30 15:07:06;;;;;;;;;;;;;;;7.3;100;99597.56;;;;-75
2022/12/30 15:12:08;;;;;;;;;;;;;;;7.31;100;99596.13;;;;-75
2022/12/30 15:17:24;;;;;;;;;;;;;;;7.3;100;99594.17;;;;-75
2022/12/30 15:22:06;;;;;;;;;;;;;;;7.33;100;99586.87;;;;-75
2022/12/30 15:24:43;;;;;;;2.5;0.9;;;;;;;;;;;;;-77
2022/12/30 15:27:06;;;;;;;;;;;;;;;7.36;100;99591.81;;;;-75
2022/12/30 15:32:07;;;;;;;;;;;;;;;7.4;100;99590.05;;;;-76
2022/12/30 15:37:07;;;;;;;;;;;;;;;7.42;100;99599.72;;;;-76
2022/12/30 15:42:07;;;;;;;;;;;;;;;7.49;100;99588.3;;;;-76
2022/12/30 15:47:06;;;;;;;;;;;;;;;7.5;100;99585.06;;;;-77
2022/12/30 15:52:09;;;;;;;;;;;;;;;7.55;100;99588.45;;;;-76
2022/12/30 15:54:39;;;;;;;2.2;1.3;;;;;;;;;;;;;-76
2022/12/30 15:57:08;;;;;;;;;;;;;;;7.63;100;99577.11;;;;-76
2022/12/30 16:02:08;;;;;;;;;;;;;;;7.66;100;99588.25;;;;-75
2022/12/30 16:07:06;;;;;;;;;;;;;;;7.71;100;99582.96;;;;-76
2022/12/30 16:12:07;;;;;;;;;;;;;;;7.8;100;99579.91;;;;-76
2022/12/30 16:17:19;;;;;;;;;;;;;;;7.85;100;99593.41;;;;-77
2022/12/30 16:22:07;;;;;;;;;;;;;;;7.92;100;99595.47;;;;-75
2022/12/30 16:24:40;;;;;;;3.7;2;;;;;;;;;;;;;-79
2022/12/30 16:27:10;;;;;;;;;;;;;;;8;100;99596.27;;;;-81
2022/12/30 16:32:09;;;;;;;;;;;;;;;8.07;100;99595.48;;;;-79
2022/12/30 16:37:15;;;;;;;;;;;;;;;8.17;100;99602.77;;;;-80
2022/12/30 16:42:06;;;;;;;;;;;;;;;8.22;100;99607.16;;;;-78
2022/12/30 16:47:06;;;;;;;;;;;;;;;8.36;100;99612.58;;;;-79
2022/12/30 16:52:07;;;;;;;;;;;;;;;8.43;100;99623.03;;;;-80
2022/12/30 16:54:39;;;;;;;5.1;3.2;;;;;;;;;;;;;-79
2022/12/30 16:57:07;;;;;;;;;;;;;;;8.5;100;99628.2;;;;-80
2022/12/30 17:02:06;;;;;;;;;;;;;;;8.62;100;99618.38;;;;-79
2022/12/30 17:07:07;;;;;;;;;;;;;;;8.67;100;99630.47;;;;-75
2022/12/30 17:12:07;;;;;;;;;;;;;;;8.77;100;99641.86;;;;-76
2022/12/30 17:17:06;;;;;;;;;;;;;;;8.83;100;99662.43;;;;-79
2022/12/30 17:22:10;;;;;;;;;;;;;;;8.95;100;99685.09;;;;-79
2022/12/30 17:24:40;;;;;;;7.3;2.9;;;;;;;;;;;;;-79
2022/12/30 17:27:06;;;;;;;;;;;;;;;9.04;100;99696.09;;;;-79
2022/12/30 17:32:06;;;;;;;;;;;;;;;9.18;100;99709.69;;;;-78
2022/12/30 17:37:06;;;;;;;;;;;;;;;9.33;100;99693.15;;;;-78
2022/12/30 17:42:06;;;;;;;;;;;;;;;9.4;100;99692.23;;;;-78
2022/12/30 17:47:06;;;;;;;;;;;;;;;9.43;100;99720.8;;;;-74
2022/12/30 17:52:06;;;;;;;;;;;;;;;9.49;100;99722.58;;;;-75
2022/12/30 17:54:40;;;;;;;15.1;1.9;;;;;;;;;;;;;-75
2022/12/30 17:57:06;;;;;;;;;;;;;;;9.54;100;99761.47;;;;-74
2022/12/30 18:02:06;;;;;;;;;;;;;;;9.58;100;99768.8;;;;-74
2022/12/30 18:07:07;;;;;;;;;;;;;;;9.61;100;99776.68;;;;-74
2022/12/30 18:12:07;;;;;;;;;;;;;;;9.62;100;99806.2;;;;-74
2022/12/30 18:17:07;;;;;;;;;;;;;;;9.59;100;99818.12;;;;-74
2022/12/30 18:22:06;;;;;;;;;;;;;;;9.62;100;99815.28;;;;-74
2022/12/30 18:24:41;;;;;;;14.1;2.3;;;;;;;;;;;;;-74
2022/12/30 18:27:07;;;;;;;;;;;;;;;9.61;100;99810.25;;;;-74
2022/12/30 18:32:06;;;;;;;;;;;;;;;9.59;100;99832.26;;;;-75
2022/12/30 18:37:06;;;;;;;;;;;;;;;9.6;100;99861.81;;;;-74
2022/12/30 18:42:07;;;;;;;;;;;;;;;9.55;100;99882.92;;;;-76
2022/12/30 18:47:06;;;;;;;;;;;;;;;9.52;100;99872;;;;-74
2022/12/30 18:52:06;;;;;;;;;;;;;;;9.5;100;99868.49;;;;-74
2022/12/30 18:54:42;;;;;;;21.6;2.8;;;;;;;;;;;;;-74
2022/12/30 18:57:06;;;;;;;;;;;;;;;9.48;100;99868.16;;;;-74
2022/12/30 19:02:07;;;;;;;;;;;;;;;9.43;100;99878.34;;;;-74
2022/12/30 19:07:09;;;;;;;;;;;;;;;9.43;100;99884.05;;;;-74
2022/12/30 19:12:07;;;;;;;;;;;;;;;9.44;100;99892.05;;;;-74
2022/12/30 19:17:06;;;;;;;;;;;;;;;9.4;100;99899.85;;;;-74
2022/12/30 19:22:06;;;;;;;;;;;;;;;9.41;100;99909.63;;;;-74
2022/12/30 19:24:43;;;;;;;16.9;2.3;;;;;;;;;;;;;-74
2022/12/30 19:27:06;;;;;;;;;;;;;;;9.44;100;99910.09;;;;-74
2022/12/30 19:32:06;;;;;;;;;;;;;;;9.46;100;99930.14;;;;-74
2022/12/30 19:37:06;;;;;;;;;;;;;;;9.48;100;99932.24;;;;-74
2022/12/30 19:42:06;;;;;;;;;;;;;;;9.51;100;99959.17;;;;-74
2022/12/30 19:47:06;;;;;;;;;;;;;;;9.56;100;99963.08;;;;-73
2022/12/30 19:52:06;;;;;;;;;;;;;;;9.61;100;99985.62;;;;-74
2022/12/30 19:54:44;;;;;;;11;2.1;;;;;;;;;;;;;-73
2022/12/30 19:57:07;;;;;;;;;;;;;;;9.6;100;99997.88;;;;-74
2022/12/30 20:02:06;;;;;;;;;;;;;;;9.62;100;100003.3;;;;-75
2022/12/30 20:07:06;;;;;;;;;;;;;;;9.6;100;99999.36;;;;-74
2022/12/30 20:12:06;;;;;;;;;;;;;;;9.61;100;100008.1;;;;-74
2022/12/30 20:17:06;;;;;;;;;;;;;;;9.65;100;100023;;;;-74
2022/12/30 20:22:06;;;;;;;;;;;;;;;9.68;100;100032.6;;;;-74
2022/12/30 20:24:44;;;;;;;13.2;1.9;;;;;;;;;;;;;-74
2022/12/30 20:27:06;;;;;;;;;;;;;;;9.64;100;100039.7;;;;-77
2022/12/30 20:32:08;;;;;;;;;;;;;;;9.68;100;100047.3;;;;-78
2022/12/30 20:37:06;;;;;;;;;;;;;;;9.71;100;100050.6;;;;-77
2022/12/30 20:42:07;;;;;;;;;;;;;;;9.74;100;100060.9;;;;-76
2022/12/30 20:47:07;;;;;;;;;;;;;;;9.78;100;100060;;;;-77
2022/12/30 20:52:06;;;;;;;;;;;;;;;9.78;100;100057.8;;;;-78
2022/12/30 20:54:45;;;;;;;10.7;1.5;;;;;;;;;;;;;-78
2022/12/30 20:57:06;;;;;;;;;;;;;;;9.8;100;100065.1;;;;-78
2022/12/30 21:02:06;;;;;;;;;;;;;;;9.81;100;100079.1;;;;-78
2022/12/30 21:07:06;;;;;;;;;;;;;;;9.83;100;100086.4;;;;-77
2022/12/30 21:12:06;;;;;;;;;;;;;;;9.87;100;100095.8;;;;-73
2022/12/30 21:17:06;;;;;;;;;;;;;;;9.86;100;100100.1;;;;-74
2022/12/30 21:22:06;;;;;;;;;;;;;;;9.82;100;100111.5;;;;-74
2022/12/30 21:24:46;;;;;;;8.6;1.5;;;;;;;;;;;;;-74
2022/12/30 21:27:06;;;;;;;;;;;;;;;9.86;100;100118.2;;;;-74
2022/12/30 21:32:08;;;;;;;;;;;;;;;9.91;100;100133.1;;;;-75
2022/12/30 21:37:07;;;;;;;;;;;;;;;9.88;100;100138.2;;;;-74
2022/12/30 22:07:06;;;;;;;;;;;;;;;10.06;100;100145.9;;;;-73
2022/12/30 22:12:06;;;;;;;;;;;;;;;10.08;100;100148.8;;;;-74
2022/12/30 22:17:06;;;;;;;;;;;;;;;10.15;100;100152.7;;;;-75
2022/12/30 22:22:06;;;;;;;;;;;;;;;10.17;100;100147.7;;;;-73
2022/12/30 22:24:47;;;;;;;21.8;5.8;;;;;;;;;;;;;-73
2022/12/30 22:27:06;;;;;;;;;;;;;;;10.2;100;100169.9;;;;-74
2022/12/30 22:32:07;;;;;;;;;;;;;;;10.22;100;100180.4;;;;-73
2022/12/30 22:37:09;;;;;;;;;;;;;;;10.23;100;100167.2;;;;-73
2022/12/30 22:42:06;;;;;;;;;;;;;;;10.26;100;100177.4;;;;-73
2022/12/30 22:47:06;;;;;;;;;;;;;;;10.28;100;100185.4;;;;-73
2022/12/30 22:52:06;;;;;;;;;;;;;;;10.28;100;100195.4;;;;-73
2022/12/30 22:54:48;;;;;;;63.5;23;;;;;;;;;;;;;-76
2022/12/30 22:57:06;;;;;;;;;;;;;;;10.36;100;100182;;;;-77
2022/12/30 23:02:06;;;;;;;;;;;;;;;10.4;100;100193.3;;;;-77
2022/12/30 23:07:06;;;;;;;;;;;;;;;10.42;100;100191;;;;-77
2022/12/30 23:16:05;;;;;;;;;;;;;;;10.4;100;100184.8;;;;-78
2022/12/30 23:17:06;;;;;;;;;;;;;;;10.41;100;100207.6;;;;-78
2022/12/30 23:25:00;;;;;;;;;;;;;;;10.43;100;100204.9;;;;-78
2022/12/30 23:27:07;;;;;;;;;;;;;;;10.46;100;100205;;;;-79
2022/12/30 23:32:06;;;;;;;;;;;;;;;10.44;100;100217.7;;;;-78
2022/12/30 23:37:06;;;;;;;;;;;;;;;10.43;100;100216.5;;;;-78
2022/12/30 23:42:06;;;;;;;;;;;;;;;10.43;100;100214.4;;;;-77
2022/12/30 23:47:06;;;;;;;;;;;;;;;10.42;100;100227.2;;;;-78
2022/12/30 23:52:06;;;;;;;;;;;;;;;10.43;100;100241.1;;;;-78
2022/12/30 23:54:50;;;;;;;12.7;4.2;;;;;;;;;;;;;-78
2022/12/30 23:57:06;;;;;;;;;;;;;;;10.41;100;100254;;;;-77
